Knox, Indiana
Current Conditions -  °F | °C
As of 10:55 PM on Monday 20 Oct 2014 (Local Time) from KOXI Reporting Station
Overcast Overcast  
Wind Chill: 50°   Ceiling: 5000
Heat Index: 50°   Visibility: 10mi
Dew Point: 45°   Wind: 3mph
Humidity: 82%   Direction: 330°NNW
Pressure: 29.97"   Gusts: NA
Location:  41.3°N, 86.63°W
Report Text: KOXI 210355Z AUTO 33003KT 10SM OVC050 10/07 A2997 RMK AO1 T01020072
Loading
Personal Weather Stations






























Interactive Weather Map
Tropical Storm Tracking
New forecast layout! Learn more

10-Day Weather Forecast

Advertisements
Track Severe Weather on mobile